sensor_id;sensor_type;location;lat;lon;timestamp;P1;durP1;ratioP1;P2;durP2;ratioP2
20449;SDS011;10384;51.940;8.432;2022-10-13T00:02:01;15.10;;;5.67;;
20449;SDS011;10384;51.940;8.432;2022-10-13T00:04:27;14.10;;;5.93;;
20449;SDS011;10384;51.940;8.432;2022-10-13T00:06:53;13.27;;;5.93;;
20449;SDS011;10384;51.940;8.432;2022-10-13T00:09:19;14.20;;;6.40;;
20449;SDS011;10384;51.940;8.432;2022-10-13T00:11:44;13.80;;;7.23;;
20449;SDS011;10384;51.940;8.432;2022-10-13T00:14:10;11.60;;;5.63;;
20449;SDS011;10384;51.940;8.432;2022-10-13T00:16:36;11.47;;;5.73;;
20449;SDS011;10384;51.940;8.432;2022-10-13T00:19:03;14.13;;;6.20;;
20449;SDS011;10384;51.940;8.432;2022-10-13T00:21:29;16.33;;;6.23;;
20449;SDS011;10384;51.940;8.432;2022-10-13T00:23:55;12.90;;;6.10;;
20449;SDS011;10384;51.940;8.432;2022-10-13T00:26:22;12.83;;;5.90;;
20449;SDS011;10384;51.940;8.432;2022-10-13T00:28:49;13.37;;;6.07;;
20449;SDS011;10384;51.940;8.432;2022-10-13T00:31:16;12.63;;;6.10;;
20449;SDS011;10384;51.940;8.432;2022-10-13T00:33:42;11.23;;;5.60;;
20449;SDS011;10384;51.940;8.432;2022-10-13T00:36:08;11.13;;;5.80;;
20449;SDS011;10384;51.940;8.432;2022-10-13T00:38:34;9.93;;;5.70;;
20449;SDS011;10384;51.940;8.432;2022-10-13T00:41:00;11.57;;;5.93;;
20449;SDS011;10384;51.940;8.432;2022-10-13T00:43:45;12.53;;;5.43;;
20449;SDS011;10384;51.940;8.432;2022-10-13T00:46:12;16.00;;;5.77;;
20449;SDS011;10384;51.940;8.432;2022-10-13T00:48:38;10.90;;;5.20;;
20449;SDS011;10384;51.940;8.432;2022-10-13T00:51:05;9.90;;;5.73;;
20449;SDS011;10384;51.940;8.432;2022-10-13T00:53:31;12.57;;;6.27;;
20449;SDS011;10384;51.940;8.432;2022-10-13T00:55:59;12.50;;;6.20;;
20449;SDS011;10384;51.940;8.432;2022-10-13T00:58:26;10.90;;;5.23;;
20449;SDS011;10384;51.940;8.432;2022-10-13T01:00:55;9.50;;;5.47;;
20449;SDS011;10384;51.940;8.432;2022-10-13T01:03:21;11.63;;;5.50;;
20449;SDS011;10384;51.940;8.432;2022-10-13T01:05:49;12.10;;;5.27;;
20449;SDS011;10384;51.940;8.432;2022-10-13T01:08:15;12.33;;;5.07;;
20449;SDS011;10384;51.940;8.432;2022-10-13T01:11:05;16.67;;;5.63;;
20449;SDS011;10384;51.940;8.432;2022-10-13T01:18:47;11.27;;;5.40;;
20449;SDS011;10384;51.940;8.432;2022-10-13T01:21:17;10.50;;;5.53;;
20449;SDS011;10384;51.940;8.432;2022-10-13T01:31:36;12.87;;;5.77;;
20449;SDS011;10384;51.940;8.432;2022-10-13T01:34:09;11.67;;;5.07;;
20449;SDS011;10384;51.940;8.432;2022-10-13T01:39:21;11.37;;;5.13;;
20449;SDS011;10384;51.940;8.432;2022-10-13T01:41:50;15.77;;;5.53;;
20449;SDS011;10384;51.940;8.432;2022-10-13T01:44:20;13.87;;;6.13;;
20449;SDS011;10384;51.940;8.432;2022-10-13T01:46:48;11.80;;;6.17;;
20449;SDS011;10384;51.940;8.432;2022-10-13T01:49:16;10.93;;;5.37;;
20449;SDS011;10384;51.940;8.432;2022-10-13T01:51:43;11.00;;;5.37;;
20449;SDS011;10384;51.940;8.432;2022-10-13T01:54:09;15.23;;;5.73;;
20449;SDS011;10384;51.940;8.432;2022-10-13T01:56:35;12.80;;;5.53;;
20449;SDS011;10384;51.940;8.432;2022-10-13T01:59:06;11.53;;;5.83;;
20449;SDS011;10384;51.940;8.432;2022-10-13T02:06:47;15.07;;;6.07;;
20449;SDS011;10384;51.940;8.432;2022-10-13T02:11:50;16.40;;;6.63;;
20449;SDS011;10384;51.940;8.432;2022-10-13T02:14:23;14.00;;;6.50;;
20449;SDS011;10384;51.940;8.432;2022-10-13T02:16:51;15.27;;;6.70;;
20449;SDS011;10384;51.940;8.432;2022-10-13T02:19:18;12.47;;;6.50;;
20449;SDS011;10384;51.940;8.432;2022-10-13T02:21:44;11.57;;;6.10;;
20449;SDS011;10384;51.940;8.432;2022-10-13T02:24:11;13.97;;;6.20;;
20449;SDS011;10384;51.940;8.432;2022-10-13T02:26:37;15.53;;;6.83;;
20449;SDS011;10384;51.940;8.432;2022-10-13T02:29:13;12.27;;;6.20;;
20449;SDS011;10384;51.940;8.432;2022-10-13T02:31:40;14.43;;;6.63;;
20449;SDS011;10384;51.940;8.432;2022-10-13T02:34:06;13.60;;;7.00;;
20449;SDS011;10384;51.940;8.432;2022-10-13T02:36:32;15.93;;;6.77;;
20449;SDS011;10384;51.940;8.432;2022-10-13T02:38:58;13.60;;;7.10;;
20449;SDS011;10384;51.940;8.432;2022-10-13T02:41:25;17.90;;;7.30;;
20449;SDS011;10384;51.940;8.432;2022-10-13T02:43:51;17.40;;;7.50;;
20449;SDS011;10384;51.940;8.432;2022-10-13T02:46:17;16.90;;;7.10;;
20449;SDS011;10384;51.940;8.432;2022-10-13T02:48:42;17.07;;;6.80;;
20449;SDS011;10384;51.940;8.432;2022-10-13T02:51:08;16.47;;;7.43;;
20449;SDS011;10384;51.940;8.432;2022-10-13T02:53:34;18.23;;;7.77;;
20449;SDS011;10384;51.940;8.432;2022-10-13T02:56:00;16.97;;;6.87;;
20449;SDS011;10384;51.940;8.432;2022-10-13T02:58:26;21.87;;;7.67;;
20449;SDS011;10384;51.940;8.432;2022-10-13T03:00:52;17.23;;;7.13;;
20449;SDS011;10384;51.940;8.432;2022-10-13T03:03:18;17.23;;;7.67;;
20449;SDS011;10384;51.940;8.432;2022-10-13T03:05:44;15.90;;;7.27;;
20449;SDS011;10384;51.940;8.432;2022-10-13T03:08:10;22.70;;;7.73;;
20449;SDS011;10384;51.940;8.432;2022-10-13T03:10:36;20.47;;;8.03;;
20449;SDS011;10384;51.940;8.432;2022-10-13T03:13:02;18.93;;;7.93;;
20449;SDS011;10384;51.940;8.432;2022-10-13T03:15:28;16.97;;;7.30;;
20449;SDS011;10384;51.940;8.432;2022-10-13T03:17:54;16.97;;;7.73;;
20449;SDS011;10384;51.940;8.432;2022-10-13T03:20:20;19.03;;;7.63;;
20449;SDS011;10384;51.940;8.432;2022-10-13T03:22:46;17.07;;;7.20;;
20449;SDS011;10384;51.940;8.432;2022-10-13T03:25:12;13.50;;;7.43;;
20449;SDS011;10384;51.940;8.432;2022-10-13T03:27:38;20.80;;;7.60;;
20449;SDS011;10384;51.940;8.432;2022-10-13T03:30:04;20.77;;;8.30;;
20449;SDS011;10384;51.940;8.432;2022-10-13T03:32:30;20.13;;;7.70;;
20449;SDS011;10384;51.940;8.432;2022-10-13T03:34:56;14.07;;;7.20;;
20449;SDS011;10384;51.940;8.432;2022-10-13T03:37:22;16.53;;;7.00;;
20449;SDS011;10384;51.940;8.432;2022-10-13T03:39:48;13.73;;;6.10;;
20449;SDS011;10384;51.940;8.432;2022-10-13T03:42:14;18.10;;;6.77;;
20449;SDS011;10384;51.940;8.432;2022-10-13T03:44:40;20.37;;;8.20;;
20449;SDS011;10384;51.940;8.432;2022-10-13T03:47:06;22.63;;;7.80;;
20449;SDS011;10384;51.940;8.432;2022-10-13T03:49:32;15.37;;;8.03;;
20449;SDS011;10384;51.940;8.432;2022-10-13T03:51:58;19.70;;;7.63;;
20449;SDS011;10384;51.940;8.432;2022-10-13T03:54:24;14.50;;;7.43;;
20449;SDS011;10384;51.940;8.432;2022-10-13T03:56:50;22.63;;;9.20;;
20449;SDS011;10384;51.940;8.432;2022-10-13T03:59:16;17.50;;;8.40;;
20449;SDS011;10384;51.940;8.432;2022-10-13T04:01:42;21.27;;;8.10;;
20449;SDS011;10384;51.940;8.432;2022-10-13T04:04:09;22.43;;;8.60;;
20449;SDS011;10384;51.940;8.432;2022-10-13T04:06:35;20.10;;;7.63;;
20449;SDS011;10384;51.940;8.432;2022-10-13T04:09:01;22.80;;;8.40;;
20449;SDS011;10384;51.940;8.432;2022-10-13T04:11:27;18.87;;;7.73;;
20449;SDS011;10384;51.940;8.432;2022-10-13T04:13:56;19.20;;;7.90;;
20449;SDS011;10384;51.940;8.432;2022-10-13T04:16:24;18.33;;;7.93;;
20449;SDS011;10384;51.940;8.432;2022-10-13T04:18:51;16.53;;;7.90;;
20449;SDS011;10384;51.940;8.432;2022-10-13T04:21:17;23.00;;;8.43;;
20449;SDS011;10384;51.940;8.432;2022-10-13T04:23:43;22.87;;;8.57;;
20449;SDS011;10384;51.940;8.432;2022-10-13T04:26:16;20.50;;;8.37;;
20449;SDS011;10384;51.940;8.432;2022-10-13T04:28:43;23.67;;;8.97;;
20449;SDS011;10384;51.940;8.432;2022-10-13T04:31:09;23.10;;;8.37;;
20449;SDS011;10384;51.940;8.432;2022-10-13T04:33:35;17.70;;;8.17;;
20449;SDS011;10384;51.940;8.432;2022-10-13T04:36:05;19.30;;;8.70;;
20449;SDS011;10384;51.940;8.432;2022-10-13T04:38:31;18.07;;;7.40;;
20449;SDS011;10384;51.940;8.432;2022-10-13T04:40:57;25.43;;;8.60;;
20449;SDS011;10384;51.940;8.432;2022-10-13T04:43:23;18.47;;;7.57;;
20449;SDS011;10384;51.940;8.432;2022-10-13T04:45:49;18.77;;;7.97;;
20449;SDS011;10384;51.940;8.432;2022-10-13T04:48:15;22.80;;;8.43;;
20449;SDS011;10384;51.940;8.432;2022-10-13T04:50:41;24.53;;;8.43;;
20449;SDS011;10384;51.940;8.432;2022-10-13T04:53:07;21.97;;;8.33;;
20449;SDS011;10384;51.940;8.432;2022-10-13T04:55:34;15.37;;;8.00;;
20449;SDS011;10384;51.940;8.432;2022-10-13T04:58:00;17.87;;;7.37;;
20449;SDS011;10384;51.940;8.432;2022-10-13T05:00:26;18.93;;;8.67;;
20449;SDS011;10384;51.940;8.432;2022-10-13T05:02:52;18.50;;;7.87;;
20449;SDS011;10384;51.940;8.432;2022-10-13T05:05:18;19.70;;;7.73;;
20449;SDS011;10384;51.940;8.432;2022-10-13T05:07:44;19.93;;;7.83;;
20449;SDS011;10384;51.940;8.432;2022-10-13T05:10:10;22.50;;;8.27;;
20449;SDS011;10384;51.940;8.432;2022-10-13T05:12:36;17.67;;;7.67;;
20449;SDS011;10384;51.940;8.432;2022-10-13T05:15:02;24.40;;;8.53;;
20449;SDS011;10384;51.940;8.432;2022-10-13T05:17:28;21.87;;;8.33;;
20449;SDS011;10384;51.940;8.432;2022-10-13T05:19:58;21.07;;;8.87;;
20449;SDS011;10384;51.940;8.432;2022-10-13T05:22:24;17.80;;;7.77;;
20449;SDS011;10384;51.940;8.432;2022-10-13T05:24:51;20.33;;;8.80;;
20449;SDS011;10384;51.940;8.432;2022-10-13T05:27:17;18.73;;;8.40;;
20449;SDS011;10384;51.940;8.432;2022-10-13T05:29:44;20.20;;;8.47;;
20449;SDS011;10384;51.940;8.432;2022-10-13T05:32:10;22.47;;;8.37;;
20449;SDS011;10384;51.940;8.432;2022-10-13T05:34:36;21.87;;;7.83;;
20449;SDS011;10384;51.940;8.432;2022-10-13T05:37:02;18.17;;;7.97;;
20449;SDS011;10384;51.940;8.432;2022-10-13T05:39:28;21.37;;;8.53;;
20449;SDS011;10384;51.940;8.432;2022-10-13T05:41:54;20.50;;;8.10;;
20449;SDS011;10384;51.940;8.432;2022-10-13T05:44:20;23.23;;;8.93;;
20449;SDS011;10384;51.940;8.432;2022-10-13T05:46:46;17.23;;;8.50;;
20449;SDS011;10384;51.940;8.432;2022-10-13T05:49:13;25.93;;;9.30;;
20449;SDS011;10384;51.940;8.432;2022-10-13T05:51:40;20.97;;;8.50;;
20449;SDS011;10384;51.940;8.432;2022-10-13T05:56:38;25.60;;;9.23;;
20449;SDS011;10384;51.940;8.432;2022-10-13T05:59:05;17.10;;;8.43;;
20449;SDS011;10384;51.940;8.432;2022-10-13T06:01:33;16.93;;;7.77;;
20449;SDS011;10384;51.940;8.432;2022-10-13T06:04:02;18.97;;;8.07;;
20449;SDS011;10384;51.940;8.432;2022-10-13T06:06:29;19.67;;;8.67;;
20449;SDS011;10384;51.940;8.432;2022-10-13T06:08:55;19.83;;;7.90;;
20449;SDS011;10384;51.940;8.432;2022-10-13T06:11:21;16.07;;;7.63;;
20449;SDS011;10384;51.940;8.432;2022-10-13T06:13:47;24.57;;;8.67;;
20449;SDS011;10384;51.940;8.432;2022-10-13T06:16:13;18.67;;;7.80;;
20449;SDS011;10384;51.940;8.432;2022-10-13T06:18:39;21.57;;;8.40;;
20449;SDS011;10384;51.940;8.432;2022-10-13T06:21:05;19.47;;;7.70;;
20449;SDS011;10384;51.940;8.432;2022-10-13T06:23:31;19.03;;;8.27;;
20449;SDS011;10384;51.940;8.432;2022-10-13T06:25:57;21.70;;;8.73;;
20449;SDS011;10384;51.940;8.432;2022-10-13T06:28:23;21.77;;;8.53;;
20449;SDS011;10384;51.940;8.432;2022-10-13T06:30:49;21.43;;;8.27;;
20449;SDS011;10384;51.940;8.432;2022-10-13T06:33:20;19.27;;;8.97;;
20449;SDS011;10384;51.940;8.432;2022-10-13T06:35:47;17.77;;;8.70;;
20449;SDS011;10384;51.940;8.432;2022-10-13T06:38:13;20.20;;;8.57;;
20449;SDS011;10384;51.940;8.432;2022-10-13T06:40:38;16.43;;;7.27;;
20449;SDS011;10384;51.940;8.432;2022-10-13T06:43:04;18.70;;;7.70;;
20449;SDS011;10384;51.940;8.432;2022-10-13T06:45:31;17.80;;;7.80;;
20449;SDS011;10384;51.940;8.432;2022-10-13T06:47:57;22.33;;;7.63;;
20449;SDS011;10384;51.940;8.432;2022-10-13T06:50:23;21.27;;;8.67;;
20449;SDS011;10384;51.940;8.432;2022-10-13T06:52:49;21.10;;;8.27;;
20449;SDS011;10384;51.940;8.432;2022-10-13T06:55:15;22.33;;;8.50;;
20449;SDS011;10384;51.940;8.432;2022-10-13T06:57:41;19.50;;;8.20;;
20449;SDS011;10384;51.940;8.432;2022-10-13T07:00:07;24.60;;;8.90;;
20449;SDS011;10384;51.940;8.432;2022-10-13T07:02:33;21.23;;;7.53;;
20449;SDS011;10384;51.940;8.432;2022-10-13T07:04:59;19.97;;;7.73;;
20449;SDS011;10384;51.940;8.432;2022-10-13T07:07:25;19.00;;;8.03;;
20449;SDS011;10384;51.940;8.432;2022-10-13T07:09:51;21.63;;;8.13;;
20449;SDS011;10384;51.940;8.432;2022-10-13T07:12:17;23.23;;;8.53;;
20449;SDS011;10384;51.940;8.432;2022-10-13T07:14:44;23.77;;;8.77;;
20449;SDS011;10384;51.940;8.432;2022-10-13T07:17:10;26.00;;;9.33;;
20449;SDS011;10384;51.940;8.432;2022-10-13T07:19:36;23.10;;;8.57;;
20449;SDS011;10384;51.940;8.432;2022-10-13T07:22:02;22.40;;;8.20;;
20449;SDS011;10384;51.940;8.432;2022-10-13T07:24:28;21.53;;;8.13;;
20449;SDS011;10384;51.940;8.432;2022-10-13T07:26:54;24.20;;;8.03;;
20449;SDS011;10384;51.940;8.432;2022-10-13T07:29:20;25.80;;;8.60;;
20449;SDS011;10384;51.940;8.432;2022-10-13T07:31:46;20.00;;;8.90;;
20449;SDS011;10384;51.940;8.432;2022-10-13T07:34:13;23.13;;;8.90;;
20449;SDS011;10384;51.940;8.432;2022-10-13T07:36:39;21.47;;;8.43;;
20449;SDS011;10384;51.940;8.432;2022-10-13T07:39:06;22.40;;;8.70;;
20449;SDS011;10384;51.940;8.432;2022-10-13T07:41:32;21.43;;;8.90;;
20449;SDS011;10384;51.940;8.432;2022-10-13T07:43:58;23.83;;;9.00;;
20449;SDS011;10384;51.940;8.432;2022-10-13T07:46:24;24.43;;;8.60;;
20449;SDS011;10384;51.940;8.432;2022-10-13T07:48:51;20.93;;;8.93;;
20449;SDS011;10384;51.940;8.432;2022-10-13T07:51:18;22.10;;;7.97;;
20449;SDS011;10384;51.940;8.432;2022-10-13T07:53:44;26.33;;;9.57;;
20449;SDS011;10384;51.940;8.432;2022-10-13T07:56:11;27.70;;;8.77;;
20449;SDS011;10384;51.940;8.432;2022-10-13T07:58:38;22.83;;;8.97;;
20449;SDS011;10384;51.940;8.432;2022-10-13T08:01:04;18.70;;;8.47;;
20449;SDS011;10384;51.940;8.432;2022-10-13T08:03:30;21.27;;;8.90;;
20449;SDS011;10384;51.940;8.432;2022-10-13T08:05:57;25.23;;;9.07;;
20449;SDS011;10384;51.940;8.432;2022-10-13T08:08:23;22.90;;;9.33;;
20449;SDS011;10384;51.940;8.432;2022-10-13T08:10:49;19.27;;;8.50;;
20449;SDS011;10384;51.940;8.432;2022-10-13T08:13:15;27.70;;;8.37;;
20449;SDS011;10384;51.940;8.432;2022-10-13T08:15:41;20.13;;;8.47;;
20449;SDS011;10384;51.940;8.432;2022-10-13T08:18:11;22.77;;;8.50;;
20449;SDS011;10384;51.940;8.432;2022-10-13T08:20:39;23.73;;;9.17;;
20449;SDS011;10384;51.940;8.432;2022-10-13T08:23:05;17.17;;;8.27;;
20449;SDS011;10384;51.940;8.432;2022-10-13T08:25:35;22.10;;;8.70;;
20449;SDS011;10384;51.940;8.432;2022-10-13T08:28:01;20.07;;;8.70;;
20449;SDS011;10384;51.940;8.432;2022-10-13T08:30:27;21.60;;;8.90;;
20449;SDS011;10384;51.940;8.432;2022-10-13T08:32:53;19.67;;;8.60;;
20449;SDS011;10384;51.940;8.432;2022-10-13T08:35:19;24.53;;;8.57;;
20449;SDS011;10384;51.940;8.432;2022-10-13T08:37:45;22.20;;;8.87;;
20449;SDS011;10384;51.940;8.432;2022-10-13T08:40:16;17.63;;;7.80;;
20449;SDS011;10384;51.940;8.432;2022-10-13T08:42:42;18.93;;;8.03;;
20449;SDS011;10384;51.940;8.432;2022-10-13T08:45:09;17.40;;;8.53;;
20449;SDS011;10384;51.940;8.432;2022-10-13T08:47:41;20.83;;;8.33;;
20449;SDS011;10384;51.940;8.432;2022-10-13T08:50:13;18.70;;;8.27;;
20449;SDS011;10384;51.940;8.432;2022-10-13T08:52:46;18.17;;;8.30;;
20449;SDS011;10384;51.940;8.432;2022-10-13T08:55:20;18.40;;;7.70;;
20449;SDS011;10384;51.940;8.432;2022-10-13T08:57:48;16.90;;;7.60;;
20449;SDS011;10384;51.940;8.432;2022-10-13T09:00:14;20.40;;;7.63;;
20449;SDS011;10384;51.940;8.432;2022-10-13T09:02:40;25.73;;;8.53;;
20449;SDS011;10384;51.940;8.432;2022-10-13T09:05:09;17.67;;;7.43;;
20449;SDS011;10384;51.940;8.432;2022-10-13T09:07:37;16.20;;;7.60;;
20449;SDS011;10384;51.940;8.432;2022-10-13T09:10:04;18.37;;;7.73;;
20449;SDS011;10384;51.940;8.432;2022-10-13T09:12:31;24.10;;;7.53;;
20449;SDS011;10384;51.940;8.432;2022-10-13T09:17:30;17.07;;;7.20;;
20449;SDS011;10384;51.940;8.432;2022-10-13T09:19:58;17.07;;;6.90;;
20449;SDS011;10384;51.940;8.432;2022-10-13T09:22:34;17.53;;;6.73;;
20449;SDS011;10384;51.940;8.432;2022-10-13T09:30:18;16.60;;;7.30;;
20449;SDS011;10384;51.940;8.432;2022-10-13T09:32:49;18.10;;;6.77;;
20449;SDS011;10384;51.940;8.432;2022-10-13T09:35:19;18.00;;;6.47;;
20449;SDS011;10384;51.940;8.432;2022-10-13T09:37:46;17.97;;;7.07;;
20449;SDS011;10384;51.940;8.432;2022-10-13T09:40:26;21.17;;;6.77;;
20449;SDS011;10384;51.940;8.432;2022-10-13T09:42:55;15.47;;;7.47;;
20449;SDS011;10384;51.940;8.432;2022-10-13T09:45:22;15.93;;;6.43;;
20449;SDS011;10384;51.940;8.432;2022-10-13T09:47:50;16.27;;;6.90;;
20449;SDS011;10384;51.940;8.432;2022-10-13T09:50:18;16.27;;;6.83;;
20449;SDS011;10384;51.940;8.432;2022-10-13T09:52:45;17.87;;;6.63;;
20449;SDS011;10384;51.940;8.432;2022-10-13T09:57:53;17.60;;;7.73;;
20449;SDS011;10384;51.940;8.432;2022-10-13T10:00:26;14.37;;;6.40;;
20449;SDS011;10384;51.940;8.432;2022-10-13T10:03:04;14.77;;;5.77;;
20449;SDS011;10384;51.940;8.432;2022-10-13T10:07:59;14.07;;;6.13;;
20449;SDS011;10384;51.940;8.432;2022-10-13T10:10:38;13.30;;;5.83;;
20449;SDS011;10384;51.940;8.432;2022-10-13T10:13:04;15.60;;;6.13;;
20449;SDS011;10384;51.940;8.432;2022-10-13T10:18:37;13.00;;;5.50;;
20449;SDS011;10384;51.940;8.432;2022-10-13T10:21:04;17.93;;;5.90;;
20449;SDS011;10384;51.940;8.432;2022-10-13T10:23:53;14.37;;;6.47;;
20449;SDS011;10384;51.940;8.432;2022-10-13T10:26:19;13.77;;;5.97;;
20449;SDS011;10384;51.940;8.432;2022-10-13T10:33:48;12.77;;;5.70;;
20449;SDS011;10384;51.940;8.432;2022-10-13T10:36:19;13.00;;;5.00;;
20449;SDS011;10384;51.940;8.432;2022-10-13T10:38:49;13.57;;;5.23;;
20449;SDS011;10384;51.940;8.432;2022-10-13T10:44:06;17.07;;;5.77;;
20449;SDS011;10384;51.940;8.432;2022-10-13T10:46:35;13.37;;;5.87;;
20449;SDS011;10384;51.940;8.432;2022-10-13T10:49:35;12.47;;;6.03;;
20449;SDS011;10384;51.940;8.432;2022-10-13T10:51:54;11.47;;;5.57;;
20449;SDS011;10384;51.940;8.432;2022-10-13T10:57:00;16.17;;;5.63;;
20449;SDS011;10384;51.940;8.432;2022-10-13T10:59:36;11.17;;;4.87;;
20449;SDS011;10384;51.940;8.432;2022-10-13T11:04:38;9.23;;;4.67;;
20449;SDS011;10384;51.940;8.432;2022-10-13T11:15:00;8.83;;;4.57;;
20449;SDS011;10384;51.940;8.432;2022-10-13T11:17:36;12.17;;;4.97;;
20449;SDS011;10384;51.940;8.432;2022-10-13T11:23:25;14.53;;;5.20;;
20449;SDS011;10384;51.940;8.432;2022-10-13T11:35:55;10.97;;;4.90;;
20449;SDS011;10384;51.940;8.432;2022-10-13T11:38:29;9.07;;;4.43;;
20449;SDS011;10384;51.940;8.432;2022-10-13T11:53:43;12.20;;;4.40;;
20449;SDS011;10384;51.940;8.432;2022-10-13T11:56:21;8.47;;;4.13;;
20449;SDS011;10384;51.940;8.432;2022-10-13T11:58:47;10.23;;;4.30;;
20449;SDS011;10384;51.940;8.432;2022-10-13T12:01:14;7.77;;;3.70;;
20449;SDS011;10384;51.940;8.432;2022-10-13T12:03:41;9.57;;;3.93;;
20449;SDS011;10384;51.940;8.432;2022-10-13T12:08:57;9.27;;;3.57;;
20449;SDS011;10384;51.940;8.432;2022-10-13T12:11:25;7.17;;;3.43;;
20449;SDS011;10384;51.940;8.432;2022-10-13T12:13:52;6.20;;;3.30;;
20449;SDS011;10384;51.940;8.432;2022-10-13T12:16:18;9.87;;;4.03;;
20449;SDS011;10384;51.940;8.432;2022-10-13T12:18:46;9.80;;;3.60;;
20449;SDS011;10384;51.940;8.432;2022-10-13T12:21:16;6.93;;;3.50;;
20449;SDS011;10384;51.940;8.432;2022-10-13T12:23:43;6.43;;;3.17;;
20449;SDS011;10384;51.940;8.432;2022-10-13T12:26:19;9.37;;;3.47;;
20449;SDS011;10384;51.940;8.432;2022-10-13T12:31:19;7.83;;;3.47;;
20449;SDS011;10384;51.940;8.432;2022-10-13T12:33:59;5.23;;;2.97;;
20449;SDS011;10384;51.940;8.432;2022-10-13T12:36:28;8.33;;;2.87;;
20449;SDS011;10384;51.940;8.432;2022-10-13T12:38:57;8.73;;;3.03;;
20449;SDS011;10384;51.940;8.432;2022-10-13T12:41:24;8.30;;;3.37;;
20449;SDS011;10384;51.940;8.432;2022-10-13T12:43:52;8.63;;;4.07;;
20449;SDS011;10384;51.940;8.432;2022-10-13T12:47:01;8.20;;;3.33;;
20449;SDS011;10384;51.940;8.432;2022-10-13T12:49:40;10.10;;;3.47;;
20449;SDS011;10384;51.940;8.432;2022-10-13T12:54:33;11.13;;;3.67;;
20449;SDS011;10384;51.940;8.432;2022-10-13T12:57:00;6.80;;;3.10;;
20449;SDS011;10384;51.940;8.432;2022-10-13T12:59:29;6.20;;;3.03;;
20449;SDS011;10384;51.940;8.432;2022-10-13T13:01:59;7.43;;;3.27;;
20449;SDS011;10384;51.940;8.432;2022-10-13T13:04:27;6.90;;;3.27;;
20449;SDS011;10384;51.940;8.432;2022-10-13T13:06:59;8.33;;;3.50;;
20449;SDS011;10384;51.940;8.432;2022-10-13T13:09:29;9.07;;;3.07;;
20449;SDS011;10384;51.940;8.432;2022-10-13T13:12:29;5.13;;;2.80;;
20449;SDS011;10384;51.940;8.432;2022-10-13T13:14:49;8.57;;;2.80;;
20449;SDS011;10384;51.940;8.432;2022-10-13T13:19:45;7.07;;;3.67;;
20449;SDS011;10384;51.940;8.432;2022-10-13T13:22:11;8.03;;;2.93;;
20449;SDS011;10384;51.940;8.432;2022-10-13T13:24:38;6.93;;;2.60;;
20449;SDS011;10384;51.940;8.432;2022-10-13T13:29:43;6.03;;;2.90;;
20449;SDS011;10384;51.940;8.432;2022-10-13T13:32:10;8.07;;;3.00;;
20449;SDS011;10384;51.940;8.432;2022-10-13T13:34:37;6.93;;;2.93;;
20449;SDS011;10384;51.940;8.432;2022-10-13T13:37:03;6.77;;;3.10;;
20449;SDS011;10384;51.940;8.432;2022-10-13T13:39:29;7.50;;;3.00;;
20449;SDS011;10384;51.940;8.432;2022-10-13T13:41:54;5.13;;;3.43;;
20449;SDS011;10384;51.940;8.432;2022-10-13T13:44:23;6.70;;;3.30;;
20449;SDS011;10384;51.940;8.432;2022-10-13T13:46:49;10.73;;;3.47;;
20449;SDS011;10384;51.940;8.432;2022-10-13T13:49:15;7.40;;;3.30;;
20449;SDS011;10384;51.940;8.432;2022-10-13T13:51:41;8.87;;;3.40;;
20449;SDS011;10384;51.940;8.432;2022-10-13T13:54:07;7.20;;;3.57;;
20449;SDS011;10384;51.940;8.432;2022-10-13T13:56:33;5.73;;;2.97;;
20449;SDS011;10384;51.940;8.432;2022-10-13T13:58:59;7.40;;;2.97;;
20449;SDS011;10384;51.940;8.432;2022-10-13T14:01:25;5.10;;;2.70;;
20449;SDS011;10384;51.940;8.432;2022-10-13T14:03:51;5.93;;;2.60;;
20449;SDS011;10384;51.940;8.432;2022-10-13T14:06:18;5.40;;;3.47;;
20449;SDS011;10384;51.940;8.432;2022-10-13T14:08:44;7.50;;;2.80;;
20449;SDS011;10384;51.940;8.432;2022-10-13T14:11:11;7.13;;;3.30;;
20449;SDS011;10384;51.940;8.432;2022-10-13T14:13:37;6.30;;;2.80;;
20449;SDS011;10384;51.940;8.432;2022-10-13T14:16:03;7.77;;;3.20;;
20449;SDS011;10384;51.940;8.432;2022-10-13T14:18:29;7.10;;;3.53;;
20449;SDS011;10384;51.940;8.432;2022-10-13T14:20:55;10.13;;;3.77;;
20449;SDS011;10384;51.940;8.432;2022-10-13T14:23:21;5.97;;;3.33;;
20449;SDS011;10384;51.940;8.432;2022-10-13T14:25:47;16.53;;;3.97;;
20449;SDS011;10384;51.940;8.432;2022-10-13T14:28:13;6.73;;;3.10;;
20449;SDS011;10384;51.940;8.432;2022-10-13T14:30:39;8.77;;;3.20;;
20449;SDS011;10384;51.940;8.432;2022-10-13T14:33:06;6.63;;;3.40;;
20449;SDS011;10384;51.940;8.432;2022-10-13T14:35:32;11.57;;;3.93;;
20449;SDS011;10384;51.940;8.432;2022-10-13T14:37:58;8.43;;;4.50;;
20449;SDS011;10384;51.940;8.432;2022-10-13T14:40:24;7.63;;;3.40;;
20449;SDS011;10384;51.940;8.432;2022-10-13T14:42:50;10.23;;;3.73;;
20449;SDS011;10384;51.940;8.432;2022-10-13T14:45:16;8.30;;;3.50;;
20449;SDS011;10384;51.940;8.432;2022-10-13T14:47:42;9.87;;;3.30;;
20449;SDS011;10384;51.940;8.432;2022-10-13T14:50:09;7.63;;;3.30;;
20449;SDS011;10384;51.940;8.432;2022-10-13T14:52:35;8.40;;;3.47;;
20449;SDS011;10384;51.940;8.432;2022-10-13T14:55:01;7.53;;;3.23;;
20449;SDS011;10384;51.940;8.432;2022-10-13T14:57:27;6.83;;;2.97;;
20449;SDS011;10384;51.940;8.432;2022-10-13T14:59:53;5.80;;;2.87;;
20449;SDS011;10384;51.940;8.432;2022-10-13T15:02:19;8.30;;;3.00;;
20449;SDS011;10384;51.940;8.432;2022-10-13T15:04:45;6.70;;;3.50;;
20449;SDS011;10384;51.940;8.432;2022-10-13T15:07:11;5.97;;;2.67;;
20449;SDS011;10384;51.940;8.432;2022-10-13T15:09:37;7.37;;;3.20;;
20449;SDS011;10384;51.940;8.432;2022-10-13T15:12:03;12.93;;;4.53;;
20449;SDS011;10384;51.940;8.432;2022-10-13T15:14:29;6.93;;;3.13;;
20449;SDS011;10384;51.940;8.432;2022-10-13T15:16:55;10.03;;;3.83;;
20449;SDS011;10384;51.940;8.432;2022-10-13T15:19:20;10.57;;;3.30;;
20449;SDS011;10384;51.940;8.432;2022-10-13T15:21:46;7.23;;;3.90;;
20449;SDS011;10384;51.940;8.432;2022-10-13T15:24:12;8.53;;;3.57;;
20449;SDS011;10384;51.940;8.432;2022-10-13T15:26:38;10.37;;;3.47;;
20449;SDS011;10384;51.940;8.432;2022-10-13T15:29:04;8.27;;;3.63;;
20449;SDS011;10384;51.940;8.432;2022-10-13T15:31:30;7.40;;;3.80;;
20449;SDS011;10384;51.940;8.432;2022-10-13T15:33:56;9.23;;;3.20;;
20449;SDS011;10384;51.940;8.432;2022-10-13T15:36:22;8.03;;;3.47;;
20449;SDS011;10384;51.940;8.432;2022-10-13T15:38:49;8.50;;;3.50;;
20449;SDS011;10384;51.940;8.432;2022-10-13T15:41:15;7.30;;;3.70;;
20449;SDS011;10384;51.940;8.432;2022-10-13T15:43:42;8.43;;;3.87;;
20449;SDS011;10384;51.940;8.432;2022-10-13T15:46:12;7.80;;;3.87;;
20449;SDS011;10384;51.940;8.432;2022-10-13T15:48:44;10.60;;;4.23;;
20449;SDS011;10384;51.940;8.432;2022-10-13T15:51:12;9.33;;;4.30;;
20449;SDS011;10384;51.940;8.432;2022-10-13T15:53:39;12.43;;;6.30;;
20449;SDS011;10384;51.940;8.432;2022-10-13T15:56:05;10.87;;;6.00;;
20449;SDS011;10384;51.940;8.432;2022-10-13T15:58:31;12.00;;;6.07;;
20449;SDS011;10384;51.940;8.432;2022-10-13T16:00:57;19.70;;;8.50;;
20449;SDS011;10384;51.940;8.432;2022-10-13T16:03:22;20.57;;;8.43;;
20449;SDS011;10384;51.940;8.432;2022-10-13T16:05:53;19.93;;;7.87;;
20449;SDS011;10384;51.940;8.432;2022-10-13T16:08:20;17.03;;;7.10;;
20449;SDS011;10384;51.940;8.432;2022-10-13T16:10:46;16.37;;;6.57;;
20449;SDS011;10384;51.940;8.432;2022-10-13T16:13:12;21.73;;;6.80;;
20449;SDS011;10384;51.940;8.432;2022-10-13T16:15:39;14.80;;;6.07;;
20449;SDS011;10384;51.940;8.432;2022-10-13T16:18:06;15.90;;;6.33;;
20449;SDS011;10384;51.940;8.432;2022-10-13T16:20:32;14.67;;;5.57;;
20449;SDS011;10384;51.940;8.432;2022-10-13T16:23:01;13.73;;;5.70;;